createdAt,value
2023-09-08T00:01:57.867Z,10.80
2023-09-08T00:04:26.387Z,9.90
2023-09-08T00:06:54.422Z,10.50
2023-09-08T00:09:22.361Z,9.38
2023-09-08T00:11:50.656Z,11.15
2023-09-08T00:14:19.464Z,10.77
2023-09-08T00:16:50.642Z,9.50
2023-09-08T00:19:19.169Z,7.05
2023-09-08T00:21:47.090Z,10.00
2023-09-08T00:26:41.822Z,8.65
2023-09-08T00:29:09.779Z,9.15
2023-09-08T00:31:40.931Z,8.93
2023-09-08T00:34:09.164Z,8.20
2023-09-08T00:36:40.445Z,8.60
2023-09-08T00:39:11.412Z,10.38
2023-09-08T00:41:39.654Z,8.32
2023-09-08T00:44:10.308Z,9.48
2023-09-08T00:46:38.691Z,8.27
2023-09-08T00:49:07.532Z,9.82
2023-09-08T00:51:36.386Z,8.50
2023-09-08T00:54:04.592Z,9.38
2023-09-08T00:56:33.947Z,10.23
2023-09-08T00:59:03.905Z,9.88
2023-09-08T01:01:33.325Z,11.55
2023-09-08T01:04:03.673Z,9.23
2023-09-08T01:06:34.269Z,8.93
2023-09-08T01:09:02.569Z,8.98
2023-09-08T01:11:35.718Z,9.98
2023-09-08T01:14:04.069Z,9.93
2023-09-08T01:16:32.077Z,13.30
2023-09-08T01:19:01.022Z,8.32
2023-09-08T01:21:41.475Z,6.97
2023-09-08T01:24:45.273Z,7.07
2023-09-08T01:29:43.453Z,5.60
2023-09-08T01:32:12.143Z,6.93
2023-09-08T01:37:09.069Z,8.40
2023-09-08T01:39:37.211Z,6.70
2023-09-08T01:42:05.560Z,6.30
2023-09-08T01:44:37.612Z,4.75
2023-09-08T01:47:09.095Z,6.25
2023-09-08T01:49:37.076Z,5.65
2023-09-08T01:52:06.527Z,3.78
2023-09-08T01:54:37.540Z,4.50
2023-09-08T01:57:06.106Z,3.72
2023-09-08T01:59:34.089Z,4.82
2023-09-08T02:02:02.068Z,3.33
2023-09-08T02:06:57.276Z,3.87
2023-09-08T02:09:36.198Z,6.30
2023-09-08T02:12:05.295Z,4.40
2023-09-08T02:14:33.359Z,4.25
2023-09-08T02:17:01.686Z,2.87
2023-09-08T02:19:30.252Z,4.47
2023-09-08T02:21:58.092Z,4.20
2023-09-08T02:24:26.154Z,3.75
2023-09-08T02:26:56.324Z,3.10
2023-09-08T02:29:24.352Z,4.80
2023-09-08T02:31:54.700Z,4.70
2023-09-08T02:34:23.052Z,4.22
2023-09-08T02:36:52.271Z,5.00
2023-09-08T02:39:21.118Z,5.15
2023-09-08T02:41:49.597Z,5.43
2023-09-08T02:44:20.598Z,3.50
2023-09-08T02:46:48.520Z,3.85
2023-09-08T02:49:16.915Z,3.08
2023-09-08T02:51:45.316Z,4.68
2023-09-08T02:54:13.242Z,4.72
2023-09-08T02:56:41.550Z,3.47
2023-09-08T02:59:10.064Z,7.12
2023-09-08T03:01:42.269Z,6.00
2023-09-08T03:04:13.943Z,4.35
2023-09-08T03:06:45.656Z,4.43
2023-09-08T03:11:41.019Z,6.10
2023-09-08T03:14:09.038Z,5.78
2023-09-08T03:16:37.282Z,9.25
2023-09-08T03:19:05.411Z,8.10
2023-09-08T03:21:33.251Z,6.87
2023-09-08T03:24:01.463Z,3.33
2023-09-08T03:26:29.523Z,5.93
2023-09-08T03:28:57.473Z,5.30
2023-09-08T03:33:52.692Z,4.30
2023-09-08T03:36:20.635Z,7.25
2023-09-08T03:38:48.970Z,9.95
2023-09-08T03:41:17.024Z,7.53
2023-09-08T03:43:45.073Z,5.93
2023-09-08T03:48:40.184Z,4.90
2023-09-08T03:51:08.189Z,9.02
2023-09-08T03:53:36.927Z,4.95
2023-09-08T03:56:05.037Z,7.12
2023-09-08T03:58:32.731Z,4.55
2023-09-08T04:01:01.136Z,5.03
2023-09-08T04:03:29.592Z,4.18
2023-09-08T04:05:58.584Z,7.35
2023-09-08T04:08:26.544Z,6.60
2023-09-08T04:10:55.205Z,5.87
2023-09-08T04:13:23.299Z,5.28
2023-09-08T04:15:51.521Z,5.30
2023-09-08T04:18:20.149Z,4.20
2023-09-08T04:23:16.645Z,3.05
2023-09-08T04:25:44.949Z,4.68
2023-09-08T04:28:12.980Z,5.22
2023-09-08T04:30:41.106Z,4.50
2023-09-08T04:33:09.787Z,4.70
2023-09-08T04:38:05.059Z,5.40
2023-09-08T04:40:33.635Z,5.20
2023-09-08T04:43:02.253Z,5.60
2023-09-08T04:45:31.725Z,4.30
2023-09-08T04:48:01.404Z,3.83
2023-09-08T04:50:31.365Z,5.43
2023-09-08T04:53:02.734Z,4.05
2023-09-08T04:55:31.393Z,3.30
2023-09-08T04:58:02.438Z,4.62
2023-09-08T05:00:30.889Z,5.70
2023-09-08T05:03:00.876Z,6.25
2023-09-08T05:07:57.632Z,3.37
2023-09-08T05:10:29.794Z,4.25
2023-09-08T05:13:02.183Z,3.33
2023-09-08T05:15:35.010Z,4.85
2023-09-08T05:20:32.586Z,4.78
2023-09-08T05:23:01.577Z,3.83
2023-09-08T05:25:30.046Z,3.65
2023-09-08T05:27:58.950Z,2.90
2023-09-08T05:30:27.717Z,3.50
2023-09-08T05:32:59.353Z,2.90
2023-09-08T05:35:28.623Z,3.65
2023-09-08T05:37:57.291Z,3.10
2023-09-08T05:40:27.762Z,3.67
2023-09-08T05:42:57.377Z,3.03
2023-09-08T05:45:27.549Z,4.60
2023-09-08T05:47:56.399Z,4.12
2023-09-08T05:50:26.137Z,3.30
2023-09-08T05:52:56.016Z,2.60
2023-09-08T05:55:26.967Z,2.65
2023-09-08T05:57:56.415Z,12.82
2023-09-08T06:00:27.624Z,2.87
2023-09-08T06:02:57.421Z,3.95
2023-09-08T06:05:27.909Z,2.55
2023-09-08T06:08:06.449Z,2.87
2023-09-08T06:10:40.829Z,4.30
2023-09-08T06:13:10.543Z,4.10
2023-09-08T06:15:40.398Z,2.20
2023-09-08T06:18:08.896Z,10.25
2023-09-08T06:20:48.764Z,2.45
2023-09-08T06:25:51.394Z,3.08
2023-09-08T06:28:24.430Z,1.17
2023-09-08T06:30:57.537Z,2.35
2023-09-08T06:33:27.358Z,1.67
2023-09-08T06:35:56.431Z,4.28
2023-09-08T06:38:28.703Z,3.30
2023-09-08T06:41:00.220Z,2.45
2023-09-08T06:43:31.334Z,6.72
2023-09-08T06:46:06.790Z,1.98
2023-09-08T06:48:35.995Z,3.20
2023-09-08T06:51:06.588Z,3.87
2023-09-08T06:53:37.668Z,3.80
2023-09-08T06:56:13.806Z,2.25
2023-09-08T06:58:43.402Z,4.82
2023-09-08T07:01:16.533Z,7.72
2023-09-08T07:03:51.057Z,4.90
2023-09-08T07:06:25.800Z,2.00
2023-09-08T07:09:00.159Z,3.47
2023-09-08T07:11:36.410Z,3.10
2023-09-08T07:14:08.376Z,2.85
2023-09-08T07:16:40.849Z,3.10
2023-09-08T07:19:13.788Z,4.53
2023-09-08T07:21:43.794Z,2.45
2023-09-08T07:24:13.744Z,3.28
2023-09-08T07:26:45.303Z,3.80
2023-09-08T07:29:18.324Z,5.40
2023-09-08T07:31:53.592Z,8.93
2023-09-08T07:34:26.106Z,5.93
2023-09-08T07:36:58.691Z,3.35
2023-09-08T07:39:33.773Z,3.25
2023-09-08T07:42:10.335Z,4.47
2023-09-08T07:44:41.234Z,4.28
2023-09-08T07:47:14.211Z,3.28
2023-09-08T07:52:25.149Z,3.35
2023-09-08T07:54:57.191Z,4.93
2023-09-08T07:57:33.475Z,5.93
2023-09-08T08:00:06.144Z,4.05
2023-09-08T08:02:50.593Z,3.08
2023-09-08T08:05:21.534Z,3.67
2023-09-08T08:07:54.783Z,5.53
2023-09-08T08:10:28.666Z,3.67
2023-09-08T08:13:01.330Z,4.12
2023-09-08T08:15:42.335Z,2.55
2023-09-08T08:18:21.767Z,3.50
2023-09-08T08:20:51.978Z,3.33
2023-09-08T08:23:23.291Z,4.53
2023-09-08T08:25:55.037Z,1.05
2023-09-08T08:28:28.753Z,2.58
2023-09-08T08:31:00.630Z,3.65
2023-09-08T08:33:36.102Z,5.07
2023-09-08T08:36:06.499Z,3.20
2023-09-08T08:38:40.981Z,2.87
2023-09-08T08:41:13.905Z,5.53
2023-09-08T08:43:52.327Z,5.90
2023-09-08T08:46:24.752Z,4.05
2023-09-08T08:48:57.613Z,7.03
2023-09-08T08:51:32.308Z,7.10
2023-09-08T08:54:14.716Z,8.55
2023-09-08T08:56:46.184Z,4.40
2023-09-08T08:59:15.970Z,5.37
2023-09-08T09:04:18.775Z,4.75
2023-09-08T09:06:54.787Z,3.70
2023-09-08T09:09:31.577Z,4.43
2023-09-08T09:19:48.479Z,3.42
2023-09-08T09:22:25.889Z,5.90
2023-09-08T09:25:04.680Z,4.35
2023-09-08T09:27:33.406Z,4.95
2023-09-08T09:30:08.200Z,1.77
2023-09-08T09:32:38.776Z,3.37
2023-09-08T09:35:10.807Z,4.90
2023-09-08T09:37:43.284Z,9.77
2023-09-08T09:40:13.371Z,4.07
2023-09-08T09:42:47.592Z,5.25
2023-09-08T09:45:19.786Z,2.12
2023-09-08T09:47:53.697Z,3.97
2023-09-08T09:50:35.074Z,3.87
2023-09-08T09:53:17.228Z,2.67
2023-09-08T09:55:50.305Z,3.17
2023-09-08T09:58:21.906Z,1.65
2023-09-08T10:00:56.898Z,2.25
2023-09-08T10:05:56.546Z,2.85
2023-09-08T10:08:25.698Z,4.70
2023-09-08T10:11:08.906Z,4.62
2023-09-08T10:13:51.926Z,3.83
2023-09-08T10:16:28.969Z,3.58
2023-09-08T10:19:08.652Z,3.47
2023-09-08T10:21:51.062Z,6.62
2023-09-08T10:24:41.197Z,4.20
2023-09-08T10:27:14.212Z,2.17
2023-09-08T10:29:45.296Z,3.55
2023-09-08T10:32:19.371Z,3.58
2023-09-08T10:35:02.264Z,3.00
2023-09-08T10:37:42.042Z,6.05
2023-09-08T10:40:29.769Z,2.53
2023-09-08T10:43:12.353Z,3.42
2023-09-08T10:45:42.913Z,2.87
2023-09-08T10:48:17.525Z,2.97
2023-09-08T10:50:49.341Z,3.40
2023-09-08T10:53:24.573Z,1.62
2023-09-08T10:58:35.328Z,1.12
2023-09-08T11:01:09.228Z,1.45
2023-09-08T11:03:40.100Z,2.33
2023-09-08T11:06:10.584Z,2.22
2023-09-08T11:08:52.078Z,1.77
2023-09-08T11:11:23.789Z,2.05
2023-09-08T11:13:59.085Z,3.20
2023-09-08T11:16:36.705Z,2.58
2023-09-08T11:19:11.218Z,2.28
2023-09-08T11:21:42.354Z,1.92
2023-09-08T11:24:16.874Z,2.80
2023-09-08T22:32:20.162Z,3.83
2023-09-08T22:34:47.795Z,3.85
2023-09-08T22:37:16.935Z,2.78
2023-09-08T22:39:44.669Z,2.90
2023-09-08T22:42:12.563Z,4.47
2023-09-08T22:44:40.983Z,3.28
2023-09-08T22:47:15.226Z,2.42
2023-09-08T22:49:58.759Z,3.03
2023-09-08T22:52:26.999Z,4.95
2023-09-08T22:55:02.569Z,4.12
2023-09-08T22:57:37.468Z,3.92
2023-09-08T23:00:07.719Z,4.75
2023-09-08T23:02:35.876Z,2.92
2023-09-08T23:05:04.314Z,4.90
2023-09-08T23:07:32.666Z,4.95
2023-09-08T23:10:00.863Z,3.15
2023-09-08T23:12:31.844Z,3.97
2023-09-08T23:15:00.102Z,4.95
2023-09-08T23:17:28.314Z,4.28
2023-09-08T23:19:56.815Z,6.43
2023-09-08T23:22:25.054Z,4.05
2023-09-08T23:24:52.980Z,4.05
2023-09-08T23:27:20.861Z,4.90
2023-09-08T23:29:49.237Z,4.45
2023-09-08T23:32:17.185Z,4.18
2023-09-08T23:34:45.098Z,4.47
2023-09-08T23:39:40.575Z,3.80
2023-09-08T23:42:08.722Z,3.65
2023-09-08T23:47:05.260Z,6.18
2023-09-08T23:49:36.320Z,3.70
2023-09-08T23:52:04.881Z,5.10
2023-09-08T23:54:36.048Z,5.80
2023-09-08T23:57:05.700Z,4.35
2023-09-08T23:59:36.427Z,4.68
